Port Melbourne — V7JA2 — position and weather

sailwx.info

Track history (hours):
 
Tides and Currents Weather Stations Pressure Air Temp Water Temp Dewpoint Dewpoint Depression Visibility Wind Speed Wind Dir Waves Ship Positions

Port Melbourne

Last reported at 2014-Sep-10 08:28 UTC. Time now 2014-Sep-30 13:56 UTC.
Position N 01°13' E 103°41'.
Warning: this ship's position is 20 days out of date.

Length 190 m; draft 12.5 m.

MMSI: 538090191.

Date/timePositionNaut miles runAvg speedWind from/ knotsBaromVisibWave heightAir tempDewpointWater temp
2014-Sep-10 08:28N 01°13' E 103°41'5 5.5
2014-Sep-10 07:33N 01°18' E 103°43'0 0.0
2014-Sep-09 20:28N 01°18' E 103°43'0 0.0
2014-Sep-09 19:10N 01°18' E 103°43'0 0.0
2014-Sep-09 13:10N 01°18' E 103°43'0 0.0
2014-Sep-09 11:22N 01°18' E 103°43'0 0.0
2014-Sep-09 10:22N 01°18' E 103°43'0 0.0
2014-Sep-09 09:28N 01°18' E 103°43'0 0.0
2014-Sep-09 06:16N 01°18' E 103°43'0 0.0
2014-Sep-09 05:25N 01°18' E 103°43'0 0.0
2014-Sep-09 04:25N 01°18' E 103°43'0 0.0
2014-Sep-08 07:33N 01°18' E 103°43'0 0.0
2014-Sep-07 17:32N 01°18' E 103°43'2 1.5
2014-Sep-07 16:32N 01°17' E 103°44'4 3.8
2014-Sep-07 15:33N 01°14' E 103°47'5 4.9
2014-Sep-07 14:33N 01°13' E 103°52'5 4.7
2014-Sep-07 13:33N 01°14' E 103°56'5 5.5
2014-Sep-07 12:34N 01°15' E 104°01'  
2014-Aug-31 17:28N 23°15' E 117°52'19 9.3
2014-Aug-31 15:25N 23°27' E 118°08'8 9.6
2014-Aug-31 14:33N 23°32' E 118°15'10 9.6
2014-Aug-31 13:33N 23°38' E 118°24'1010.1
2014-Aug-31 12:33N 23°44' E 118°32'1010.3
2014-Aug-31 11:33N 23°52' E 118°40'1110.6
2014-Aug-31 10:33N 23°59' E 118°48'1110.9
2014-Aug-31 09:33N 24°06' E 118°57'1110.8
2014-Aug-31 08:33N 24°13' E 119°06'  
Track history (hours):
 
Tides and Currents Weather Stations Pressure Air Temp Water Temp Dewpoint Dewpoint Depression Visibility Wind Speed Wind Dir Waves Ship Positions

Port Melbourne

Last reported at 2014-Sep-10 08:28 UTC. Time now 2014-Sep-30 13:56 UTC.
Position N 01°13' E 103°41'.
Warning: this ship's position is 20 days out of date.

Length 190 m; draft 12.5 m.

MMSI: 538090191.

Date/timePositionNaut miles runAvg speedWind from/ knotsBaromVisibWave heightAir tempDewpointWater temp
2014-Sep-10 08:28N 01°13' E 103°41'5 5.5
2014-Sep-10 07:33N 01°18' E 103°43'0 0.0
2014-Sep-09 20:28N 01°18' E 103°43'0 0.0
2014-Sep-09 19:10N 01°18' E 103°43'0 0.0
2014-Sep-09 13:10N 01°18' E 103°43'0 0.0
2014-Sep-09 11:22N 01°18' E 103°43'0 0.0
2014-Sep-09 10:22N 01°18' E 103°43'0 0.0
2014-Sep-09 09:28N 01°18' E 103°43'0 0.0
2014-Sep-09 06:16N 01°18' E 103°43'0 0.0
2014-Sep-09 05:25N 01°18' E 103°43'0 0.0
2014-Sep-09 04:25N 01°18' E 103°43'0 0.0
2014-Sep-08 07:33N 01°18' E 103°43'0 0.0
2014-Sep-07 17:32N 01°18' E 103°43'2 1.5
2014-Sep-07 16:32N 01°17' E 103°44'4 3.8
2014-Sep-07 15:33N 01°14' E 103°47'5 4.9
2014-Sep-07 14:33N 01°13' E 103°52'5 4.7
2014-Sep-07 13:33N 01°14' E 103°56'5 5.5
2014-Sep-07 12:34N 01°15' E 104°01'  
2014-Aug-31 17:28N 23°15' E 117°52'19 9.3
2014-Aug-31 15:25N 23°27' E 118°08'8 9.6
2014-Aug-31 14:33N 23°32' E 118°15'10 9.6
2014-Aug-31 13:33N 23°38' E 118°24'1010.1
2014-Aug-31 12:33N 23°44' E 118°32'1010.3
2014-Aug-31 11:33N 23°52' E 118°40'1110.6
2014-Aug-31 10:33N 23°59' E 118°48'1110.9
2014-Aug-31 09:33N 24°06' E 118°57'1110.8
2014-Aug-31 08:33N 24°13' E 119°06'  

Dump ship's entire track history